createdAt,value
2018-02-24T00:00:56.935Z,52.96
2018-02-24T00:03:27.927Z,52.94
2018-02-24T00:05:58.909Z,52.96
2018-02-24T00:08:29.899Z,53.21
2018-02-24T00:11:00.906Z,53.06
2018-02-24T00:13:31.910Z,52.87
2018-02-24T00:16:02.930Z,52.73
2018-02-24T00:18:33.905Z,52.83
2018-02-24T00:21:04.930Z,53.14
2018-02-24T00:23:35.946Z,53.08
2018-02-24T00:26:06.921Z,53.03
2018-02-24T00:28:37.878Z,52.94
2018-02-24T00:31:08.884Z,53.22
2018-02-24T00:33:39.892Z,53.37
2018-02-24T00:36:10.898Z,53.80
2018-02-24T00:38:41.904Z,53.78
2018-02-24T00:41:12.889Z,53.99
2018-02-24T00:43:43.898Z,54.10
2018-02-24T00:46:14.872Z,54.28
2018-02-24T00:48:45.885Z,54.15
2018-02-24T00:51:16.937Z,54.02
2018-02-24T00:53:47.925Z,54.04
2018-02-24T00:56:18.953Z,54.14
2018-02-24T00:58:49.958Z,54.16
2018-02-24T01:01:20.991Z,54.25
2018-02-24T01:03:51.980Z,54.35
2018-02-24T01:06:22.988Z,54.19
2018-02-24T01:08:53.982Z,54.14
2018-02-24T01:11:24.990Z,54.60
2018-02-24T01:13:56.021Z,54.76
2018-02-24T01:16:27.019Z,54.98
2018-02-24T01:18:58.033Z,55.24
2018-02-24T01:21:29.013Z,55.34
2018-02-24T01:24:00.071Z,55.49
2018-02-24T01:26:31.045Z,55.75
2018-02-24T01:29:02.059Z,55.75
2018-02-24T01:31:33.091Z,55.59
2018-02-24T01:34:04.070Z,55.87
2018-02-24T01:36:35.103Z,56.49
2018-02-24T01:39:06.082Z,56.63
2018-02-24T01:41:37.082Z,56.57
2018-02-24T01:44:08.020Z,56.47
2018-02-24T01:46:39.025Z,56.38
2018-02-24T01:49:10.035Z,56.56
2018-02-24T01:51:41.032Z,56.48
2018-02-24T01:54:12.030Z,56.73
2018-02-24T01:56:43.024Z,56.59
2018-02-24T01:59:14.061Z,56.94
2018-02-24T02:01:45.056Z,57.08
2018-02-24T02:04:16.051Z,57.41
2018-02-24T02:06:47.051Z,57.61
2018-02-24T02:09:18.036Z,57.64
2018-02-24T02:11:49.054Z,57.62
2018-02-24T02:14:20.051Z,57.49
2018-02-24T02:16:51.061Z,57.66
2018-02-24T02:19:22.088Z,57.92
2018-02-24T02:21:53.150Z,57.70
2018-02-24T02:24:24.148Z,57.95
2018-02-24T02:26:55.165Z,58.21
2018-02-24T02:29:26.171Z,58.35
2018-02-24T02:31:57.181Z,58.51
2018-02-24T02:34:28.173Z,58.69
2018-02-24T02:36:59.168Z,58.62
2018-02-24T02:39:30.151Z,58.51
2018-02-24T02:42:01.166Z,58.49
2018-02-24T02:44:32.180Z,58.54
2018-02-24T02:47:03.173Z,58.44
2018-02-24T02:49:34.152Z,58.82
2018-02-24T02:52:05.123Z,59.24
2018-02-24T02:54:36.138Z,59.14
2018-02-24T02:57:07.112Z,59.24
2018-02-24T02:59:38.091Z,59.11
2018-02-24T03:02:09.123Z,59.38
2018-02-24T03:04:40.100Z,59.67
2018-02-24T03:07:11.142Z,59.66
2018-02-24T03:09:42.104Z,59.47
2018-02-24T03:12:13.122Z,59.36
2018-02-24T03:14:44.084Z,59.34
2018-02-24T03:17:15.169Z,59.63
2018-02-24T03:19:46.146Z,59.75
2018-02-24T03:22:17.117Z,59.74
2018-02-24T03:24:48.123Z,59.69
2018-02-24T03:27:19.134Z,59.57
2018-02-24T03:29:50.158Z,59.86
2018-02-24T03:32:21.129Z,60.10
2018-02-24T03:34:52.136Z,59.88
2018-02-24T03:37:23.153Z,59.61
2018-02-24T03:39:54.196Z,59.59
2018-02-24T03:42:25.203Z,59.64
2018-02-24T03:44:56.192Z,59.86
2018-02-24T03:47:27.223Z,59.94
2018-02-24T03:49:58.213Z,60.21
2018-02-24T03:52:29.228Z,60.37
2018-02-24T03:55:00.198Z,59.82
2018-02-24T03:57:31.198Z,60.01
2018-02-24T04:00:02.239Z,60.04
2018-02-24T04:02:33.240Z,60.20
2018-02-24T04:05:04.324Z,60.15
2018-02-24T04:07:35.348Z,60.51
2018-02-24T04:10:06.344Z,60.38
2018-02-24T04:12:37.337Z,60.55
2018-02-24T04:15:08.396Z,61.28
2018-02-24T04:17:39.402Z,60.40
2018-02-24T04:20:10.408Z,60.48
2018-02-24T04:22:41.386Z,60.23
2018-02-24T04:25:12.412Z,60.04
2018-02-24T04:27:43.433Z,60.19
2018-02-24T04:30:14.453Z,60.27
2018-02-24T04:32:45.493Z,60.44
2018-02-24T04:35:16.479Z,60.24
2018-02-24T04:37:47.509Z,60.39
2018-02-24T04:40:18.549Z,60.15
2018-02-24T04:42:49.527Z,60.11
2018-02-24T04:45:20.529Z,60.09
2018-02-24T04:47:51.533Z,60.16
2018-02-24T04:50:22.545Z,60.30
2018-02-24T04:52:53.500Z,60.29
2018-02-24T04:55:24.547Z,60.30
2018-02-24T04:57:55.618Z,60.23
2018-02-24T05:00:26.600Z,60.16
2018-02-24T05:02:57.640Z,60.30
2018-02-24T05:05:28.608Z,60.03
2018-02-24T05:07:59.609Z,60.45
2018-02-24T05:10:30.574Z,60.50
2018-02-24T05:13:01.568Z,60.48
2018-02-24T05:15:32.556Z,60.55
2018-02-24T05:18:03.536Z,60.39
2018-02-24T05:20:34.522Z,60.46
2018-02-24T05:23:05.538Z,60.80
2018-02-24T05:25:36.549Z,60.72
2018-02-24T05:28:07.652Z,60.84
2018-02-24T05:30:38.635Z,60.61
2018-02-24T05:33:09.607Z,60.53
2018-02-24T05:35:40.610Z,60.51
2018-02-24T05:38:11.595Z,60.54
2018-02-24T05:40:42.589Z,60.32
2018-02-24T05:43:13.603Z,60.29
2018-02-24T05:45:44.548Z,60.02
2018-02-24T05:48:15.573Z,59.91
2018-02-24T05:50:46.615Z,59.95
2018-02-24T05:53:17.584Z,59.77
2018-02-24T05:55:48.560Z,59.82
2018-02-24T05:58:19.588Z,59.79
2018-02-24T06:00:50.565Z,59.64
2018-02-24T06:03:21.602Z,59.73
2018-02-24T06:05:52.642Z,59.69
2018-02-24T06:08:23.620Z,59.48
2018-02-24T06:10:54.612Z,59.41
2018-02-24T06:13:25.659Z,59.45
2018-02-24T06:15:56.622Z,59.35
2018-02-24T06:18:27.619Z,59.33
2018-02-24T06:20:58.613Z,59.40
2018-02-24T06:23:29.580Z,59.19
2018-02-24T06:26:00.596Z,58.63
2018-02-24T06:28:31.589Z,58.57
2018-02-24T06:31:02.590Z,58.58
2018-02-24T06:33:33.590Z,58.37
2018-02-24T06:36:04.629Z,58.22
2018-02-24T06:38:35.664Z,57.87
2018-02-24T06:41:06.673Z,57.25
2018-02-24T06:43:37.694Z,57.17
2018-02-24T06:46:08.693Z,57.07
2018-02-24T06:48:39.689Z,57.11
2018-02-24T06:51:10.739Z,57.36
2018-02-24T06:53:41.743Z,56.58
2018-02-24T06:56:12.703Z,56.37
2018-02-24T06:58:43.685Z,57.20
2018-02-24T07:01:14.718Z,55.41
2018-02-24T07:03:45.703Z,55.04
2018-02-24T07:06:16.760Z,55.71
2018-02-24T07:08:47.768Z,55.61
2018-02-24T07:11:19.277Z,55.11
2018-02-24T07:13:50.302Z,55.06
2018-02-24T07:16:21.305Z,55.44
2018-02-24T07:18:52.293Z,55.30
2018-02-24T07:21:23.291Z,55.00
2018-02-24T07:23:54.301Z,54.65
2018-02-24T07:26:25.251Z,54.38
2018-02-24T07:28:56.273Z,53.91
2018-02-24T07:31:27.305Z,53.33
2018-02-24T07:33:58.324Z,53.23
2018-02-24T07:36:29.323Z,53.03
2018-02-24T07:39:00.334Z,52.85
2018-02-24T07:41:31.319Z,52.05
2018-02-24T07:44:02.378Z,51.47
2018-02-24T07:46:33.358Z,50.97
2018-02-24T07:49:04.363Z,50.81
2018-02-24T07:51:35.363Z,50.77
2018-02-24T07:54:06.375Z,50.30
2018-02-24T07:56:37.343Z,50.49
2018-02-24T07:59:08.381Z,49.88
2018-02-24T08:01:39.352Z,50.21
2018-02-24T08:04:10.374Z,49.71
2018-02-24T08:06:41.390Z,49.01
2018-02-24T08:09:13.289Z,48.81
2018-02-24T08:11:44.307Z,48.92
2018-02-24T08:14:15.310Z,48.37
2018-02-24T08:16:46.322Z,47.88
2018-02-24T08:19:17.359Z,47.27
2018-02-24T08:21:48.403Z,42.18
2018-02-24T08:24:19.403Z,34.04
2018-02-24T08:26:50.398Z,28.60
2018-02-24T08:29:21.918Z,26.64
2018-02-24T08:31:52.984Z,25.37
2018-02-24T08:34:23.968Z,24.11
2018-02-24T08:36:54.932Z,21.07
2018-02-24T08:39:25.919Z,20.12
2018-02-24T08:41:56.904Z,18.76
2018-02-24T08:44:27.905Z,19.31
2018-02-24T08:46:58.885Z,19.83
2018-02-24T08:49:29.875Z,19.54
2018-02-24T08:52:00.883Z,18.41
2018-02-24T08:54:31.904Z,17.23
2018-02-24T08:57:02.938Z,17.26
2018-02-24T08:59:33.922Z,16.45
2018-02-24T09:02:04.910Z,15.88
2018-02-24T09:04:35.921Z,15.66
2018-02-24T09:07:06.926Z,15.56
2018-02-24T09:09:37.917Z,16.86
2018-02-24T09:12:08.965Z,17.04
2018-02-24T09:14:39.947Z,16.50
2018-02-24T09:17:10.959Z,15.37
2018-02-24T09:19:41.923Z,16.43
2018-02-24T09:22:12.970Z,16.96
2018-02-24T09:24:43.953Z,16.94
2018-02-24T09:27:14.974Z,17.40
2018-02-24T09:29:45.929Z,16.40
2018-02-24T09:32:16.958Z,16.69
2018-02-24T09:34:47.929Z,16.85
2018-02-24T09:37:18.943Z,16.59
2018-02-24T09:39:49.961Z,17.82
2018-02-24T09:42:20.955Z,16.22
2018-02-24T09:44:51.938Z,15.49
2018-02-24T09:47:22.996Z,15.61
2018-02-24T09:49:54.018Z,14.74
2018-02-24T09:52:24.992Z,13.82
2018-02-24T09:54:55.951Z,13.91
2018-02-24T09:57:26.925Z,14.09
2018-02-24T09:59:57.910Z,15.38
2018-02-24T10:02:28.920Z,16.71
2018-02-24T10:04:59.892Z,16.07
2018-02-24T10:07:30.924Z,15.19
2018-02-24T10:10:01.930Z,13.75
2018-02-24T10:12:32.963Z,14.59
2018-02-24T10:15:03.987Z,15.51
2018-02-24T10:17:34.943Z,16.70
2018-02-24T10:20:05.924Z,16.49
2018-02-24T10:22:36.917Z,15.56
2018-02-24T10:25:07.936Z,14.51
2018-02-24T10:27:38.931Z,14.17
2018-02-24T10:30:09.956Z,13.83
2018-02-24T10:32:40.946Z,13.61
2018-02-24T10:35:11.922Z,13.41
2018-02-24T10:37:42.932Z,14.33
2018-02-24T10:40:13.972Z,14.05
2018-02-24T10:42:44.936Z,14.03
2018-02-24T10:45:15.912Z,14.57
2018-02-24T10:47:46.911Z,15.24
2018-02-24T10:50:17.881Z,15.77
2018-02-24T10:52:48.914Z,15.43
2018-02-24T10:55:19.865Z,14.80
2018-02-24T10:57:50.947Z,15.08
2018-02-24T11:00:21.939Z,15.46
2018-02-24T11:02:53.004Z,16.54
2018-02-24T11:05:24.006Z,16.00
2018-02-24T11:07:54.998Z,15.13
2018-02-24T11:10:26.021Z,15.17
2018-02-24T11:12:57.023Z,15.91
2018-02-24T11:15:28.043Z,16.67
2018-02-24T11:17:58.996Z,16.59
2018-02-24T11:20:30.005Z,16.85
2018-02-24T11:23:01.018Z,17.90
2018-02-24T11:25:32.744Z,17.94
2018-02-24T11:28:03.744Z,17.40
2018-02-24T11:30:34.720Z,18.09
2018-02-24T11:33:05.700Z,19.44
2018-02-24T11:35:36.686Z,21.38
2018-02-24T11:38:07.698Z,23.51
2018-02-24T11:40:38.676Z,25.09
2018-02-24T11:43:09.677Z,25.71
2018-02-24T11:45:40.676Z,26.33
2018-02-24T11:48:11.731Z,26.50
2018-02-24T11:50:42.751Z,26.13
2018-02-24T11:53:13.758Z,26.31
2018-02-24T11:55:44.766Z,26.60
2018-02-24T11:58:15.842Z,26.71
2018-02-24T12:00:46.856Z,26.76
2018-02-24T12:03:17.867Z,27.56
2018-02-24T12:05:48.885Z,27.95
2018-02-24T12:08:19.847Z,27.99
2018-02-24T12:10:50.825Z,27.71
2018-02-24T12:13:21.800Z,28.10
2018-02-24T12:15:52.850Z,28.38
2018-02-24T12:18:23.849Z,28.75
2018-02-24T12:20:54.837Z,27.42
2018-02-24T12:23:25.844Z,28.14
2018-02-24T12:25:56.824Z,28.06
2018-02-24T12:28:27.835Z,28.87
2018-02-24T12:30:58.894Z,27.19
2018-02-24T12:33:29.916Z,28.58
2018-02-24T12:36:00.923Z,28.50
2018-02-24T12:38:31.938Z,28.34
2018-02-24T12:41:02.960Z,27.94
2018-02-24T12:43:34.005Z,28.81
2018-02-24T12:46:04.987Z,29.15
2018-02-24T12:48:35.983Z,30.88
2018-02-24T12:51:07.001Z,29.73
2018-02-24T12:53:38.019Z,30.44
2018-02-24T12:56:09.015Z,28.42
2018-02-24T12:58:40.087Z,28.58
2018-02-24T13:01:11.160Z,29.02
2018-02-24T13:03:42.173Z,29.29
2018-02-24T13:06:13.203Z,29.79
2018-02-24T13:08:44.180Z,30.32
2018-02-24T13:11:15.184Z,29.02
2018-02-24T13:13:46.189Z,29.58
2018-02-24T13:16:17.176Z,29.95
2018-02-24T13:18:48.164Z,30.04
2018-02-24T13:21:19.213Z,29.23
2018-02-24T13:23:50.193Z,29.80
2018-02-24T13:26:21.217Z,29.44
2018-02-24T13:28:52.189Z,29.00
2018-02-24T13:31:23.199Z,29.00
2018-02-24T13:33:54.239Z,29.63
2018-02-24T13:36:25.249Z,30.06
2018-02-24T13:38:56.270Z,29.50
2018-02-24T13:41:27.261Z,28.77
2018-02-24T13:43:58.284Z,29.58
2018-02-24T13:46:29.262Z,29.88
2018-02-24T13:49:00.256Z,30.36
2018-02-24T13:51:31.303Z,30.92
2018-02-24T13:54:02.334Z,30.54
2018-02-24T13:56:33.340Z,30.36
2018-02-24T13:59:04.337Z,30.65
2018-02-24T14:01:35.339Z,31.59
2018-02-24T14:04:06.387Z,31.55
2018-02-24T14:06:37.363Z,32.02
2018-02-24T14:09:08.502Z,32.17
2018-02-24T14:11:39.488Z,33.10
2018-02-24T14:14:10.572Z,32.61
2018-02-24T14:16:41.600Z,32.85
2018-02-24T14:19:12.618Z,33.93
2018-02-24T14:21:43.638Z,33.93
2018-02-24T14:24:14.622Z,33.87
2018-02-24T14:26:45.669Z,33.86
2018-02-24T14:29:16.627Z,33.34
2018-02-24T14:31:47.677Z,34.26
2018-02-24T14:34:18.649Z,34.81
2018-02-24T14:36:49.716Z,34.63
2018-02-24T14:39:20.726Z,35.97
2018-02-24T14:41:51.726Z,36.54
2018-02-24T14:44:22.755Z,36.13
2018-02-24T14:46:53.769Z,35.65
2018-02-24T14:49:24.748Z,36.01
2018-02-24T14:51:55.718Z,35.63
2018-02-24T14:54:26.710Z,35.67
2018-02-24T14:56:57.804Z,35.84
2018-02-24T14:59:28.886Z,35.88
2018-02-24T15:01:59.915Z,36.10
2018-02-24T15:04:30.912Z,36.54
2018-02-24T15:07:01.903Z,37.32
2018-02-24T15:09:32.958Z,36.59
2018-02-24T15:15:00.438Z,37.56
2018-02-24T15:17:31.447Z,36.67
2018-02-24T15:20:02.522Z,36.90
2018-02-24T15:22:33.527Z,36.86
2018-02-24T15:25:04.582Z,37.01
2018-02-24T15:27:35.565Z,38.18
2018-02-24T15:30:06.612Z,38.03
2018-02-24T15:32:37.675Z,38.74
2018-02-24T15:35:08.721Z,38.12
2018-02-24T15:37:39.766Z,38.41
2018-02-24T15:40:10.729Z,38.59
2018-02-24T15:42:41.754Z,38.60
2018-02-24T15:45:12.810Z,38.08
2018-02-24T15:47:43.820Z,38.24
2018-02-24T15:50:14.843Z,38.29
2018-02-24T15:52:45.884Z,38.37
2018-02-24T15:55:16.895Z,38.63
2018-02-24T15:57:47.906Z,38.39
2018-02-24T16:00:18.907Z,38.68
2018-02-24T16:02:49.925Z,38.86
2018-02-24T16:05:20.912Z,38.98
2018-02-24T16:07:51.935Z,38.46
2018-02-24T16:10:23.007Z,38.62
2018-02-24T16:12:54.082Z,38.17
2018-02-24T16:15:25.049Z,38.55
2018-02-24T16:18:03.209Z,38.10
2018-02-24T16:20:34.209Z,39.17
2018-02-24T16:23:05.217Z,39.83
2018-02-24T16:25:36.188Z,39.34
2018-02-24T16:28:07.197Z,40.24
2018-02-24T16:30:38.214Z,40.24
2018-02-24T16:33:10.047Z,40.10
2018-02-24T16:35:41.038Z,40.34
2018-02-24T16:38:12.016Z,39.27
2018-02-24T16:40:42.987Z,38.67
2018-02-24T16:43:13.971Z,38.48
2018-02-24T16:45:44.939Z,38.44
2018-02-24T16:48:16.975Z,37.54
2018-02-24T16:50:47.954Z,37.57
2018-02-24T16:53:18.969Z,37.39
2018-02-24T16:55:49.939Z,37.42
2018-02-24T16:58:20.976Z,37.39
2018-02-24T17:00:51.950Z,36.93
2018-02-24T17:03:22.940Z,37.04
2018-02-24T17:05:53.953Z,37.57
2018-02-24T17:08:24.982Z,37.57
2018-02-24T17:10:55.976Z,37.55
2018-02-24T17:13:26.936Z,37.37
2018-02-24T17:15:57.995Z,37.64
2018-02-24T17:18:29.005Z,37.85
2018-02-24T17:21:00.050Z,38.62
2018-02-24T17:23:31.036Z,37.73
2018-02-24T17:26:02.041Z,38.00
2018-02-24T17:31:29.096Z,38.17
2018-02-24T17:34:00.111Z,38.34
2018-02-24T17:36:31.142Z,38.32
2018-02-24T17:39:02.199Z,38.58
2018-02-24T17:41:33.148Z,39.11
2018-02-24T17:44:04.139Z,39.43
2018-02-24T17:46:35.139Z,39.19
2018-02-24T17:49:06.099Z,39.36
2018-02-24T17:51:37.125Z,38.96
2018-02-24T17:54:08.190Z,38.96
2018-02-24T17:56:39.214Z,39.74
2018-02-24T17:59:10.224Z,39.45
2018-02-24T18:01:48.454Z,39.61
2018-02-24T18:04:19.503Z,39.39
2018-02-24T18:06:50.550Z,39.91
2018-02-24T18:09:21.579Z,39.72
2018-02-24T18:11:52.641Z,39.25
2018-02-24T18:14:23.613Z,39.07
2018-02-24T18:16:54.604Z,39.27
2018-02-24T18:19:25.609Z,38.76
2018-02-24T18:21:56.588Z,39.04
2018-02-24T18:24:27.660Z,39.06
2018-02-24T18:26:58.722Z,39.16
2018-02-24T18:29:29.675Z,39.87
2018-02-24T18:32:00.644Z,39.60
2018-02-24T18:34:31.631Z,40.02
2018-02-24T18:37:02.716Z,39.51
2018-02-24T18:39:33.700Z,39.58
2018-02-24T18:42:04.773Z,39.71
2018-02-24T18:44:35.784Z,39.64
2018-02-24T18:47:06.793Z,39.76
2018-02-24T18:49:37.778Z,39.93
2018-02-24T18:52:08.832Z,39.46
2018-02-24T18:54:39.841Z,39.53
2018-02-24T18:57:10.824Z,39.93
2018-02-24T18:59:41.783Z,39.84
2018-02-24T19:02:12.837Z,40.38
2018-02-24T19:04:43.902Z,41.14
2018-02-24T19:07:14.940Z,40.44
2018-02-24T19:09:45.914Z,40.81
2018-02-24T19:12:16.893Z,40.46
2018-02-24T19:14:47.905Z,40.57
2018-02-24T19:17:18.884Z,40.82
2018-02-24T19:19:49.876Z,41.17
2018-02-24T19:22:20.950Z,41.29
2018-02-24T19:24:51.909Z,41.41
2018-02-24T19:27:22.944Z,41.49
2018-02-24T19:29:53.974Z,41.68
2018-02-24T19:32:25.070Z,42.23
2018-02-24T19:34:56.070Z,42.44
2018-02-24T19:37:27.070Z,42.59
2018-02-24T19:39:58.104Z,42.12
2018-02-24T19:42:29.090Z,42.80
2018-02-24T19:45:00.192Z,43.18
2018-02-24T19:47:31.212Z,42.93
2018-02-24T19:50:02.254Z,43.06
2018-02-24T19:52:33.208Z,44.33
2018-02-24T19:55:04.277Z,43.17
2018-02-24T19:57:35.258Z,43.09
2018-02-24T20:00:06.351Z,43.57
2018-02-24T20:02:37.301Z,43.59
2018-02-24T20:05:08.315Z,44.32
2018-02-24T20:07:39.284Z,44.21
2018-02-24T20:10:10.348Z,44.35
2018-02-24T20:12:41.403Z,44.30
2018-02-24T20:15:12.431Z,44.18
2018-02-24T20:17:43.416Z,44.43
2018-02-24T20:20:14.456Z,44.99
2018-02-24T20:22:45.421Z,44.68
2018-02-24T20:25:16.411Z,44.69
2018-02-24T20:27:47.424Z,44.67
2018-02-24T20:30:18.427Z,45.09
2018-02-24T20:32:49.454Z,45.03
2018-02-24T20:35:20.467Z,45.49
2018-02-24T20:37:51.561Z,45.63
2018-02-24T20:40:22.546Z,44.74
2018-02-24T20:42:53.537Z,44.79
2018-02-24T20:45:24.549Z,44.80
2018-02-24T20:47:55.539Z,45.32
2018-02-24T20:50:26.527Z,45.47
2018-02-24T20:52:57.562Z,45.28
2018-02-24T20:55:28.640Z,45.26
2018-02-24T20:57:59.640Z,45.88
2018-02-24T21:00:30.688Z,45.83
2018-02-24T21:03:01.801Z,45.73
2018-02-24T21:05:32.792Z,45.66
2018-02-24T21:08:03.791Z,45.77
2018-02-24T21:10:34.771Z,45.75
2018-02-24T21:13:05.797Z,45.65
2018-02-24T21:15:36.823Z,46.13
2018-02-24T21:18:07.764Z,46.20
2018-02-24T21:20:38.789Z,46.14
2018-02-24T21:23:09.792Z,46.18
2018-02-24T21:25:41.200Z,45.98
2018-02-24T21:28:12.268Z,46.40
2018-02-24T21:30:43.248Z,46.58
2018-02-24T21:33:14.234Z,46.46
2018-02-24T21:35:45.253Z,46.36
2018-02-24T21:38:16.260Z,46.52
2018-02-24T21:40:47.269Z,46.34
2018-02-24T21:43:18.245Z,46.37
2018-02-24T21:45:49.280Z,46.30
2018-02-24T21:48:20.267Z,46.14
2018-02-24T21:50:51.293Z,46.31
2018-02-24T21:53:22.356Z,46.21
2018-02-24T21:55:53.346Z,46.33
2018-02-24T21:58:24.360Z,46.62
2018-02-24T22:00:55.377Z,46.51
2018-02-24T22:03:26.422Z,46.46
2018-02-24T22:05:57.392Z,46.19
2018-02-24T22:08:35.277Z,46.52
2018-02-24T22:11:06.276Z,46.47
2018-02-24T22:13:37.289Z,46.47
2018-02-24T22:16:08.288Z,46.66
2018-02-24T22:18:39.332Z,47.03
2018-02-24T22:21:10.360Z,46.68
2018-02-24T22:23:41.345Z,47.17
2018-02-24T22:26:12.356Z,46.15
2018-02-24T22:28:43.396Z,46.49
2018-02-24T22:31:14.398Z,46.42
2018-02-24T22:33:45.376Z,46.69
2018-02-24T22:36:16.443Z,46.69
2018-02-24T22:38:47.460Z,47.03
2018-02-24T22:41:18.432Z,46.59
2018-02-24T22:43:49.448Z,47.22
2018-02-24T22:46:20.442Z,46.80
2018-02-24T22:48:57.530Z,47.05
2018-02-24T22:51:28.527Z,46.91
2018-02-24T22:53:59.516Z,46.88
2018-02-24T22:56:30.487Z,46.91
2018-02-24T22:59:01.507Z,46.68
2018-02-24T23:01:32.534Z,47.00
2018-02-24T23:04:03.568Z,47.19
2018-02-24T23:06:34.566Z,47.67
2018-02-24T23:09:05.547Z,47.21
2018-02-24T23:11:36.536Z,47.55
2018-02-24T23:14:07.518Z,47.20
2018-02-24T23:16:38.512Z,47.39
2018-02-24T23:19:09.524Z,47.79
2018-02-24T23:21:40.504Z,47.86
2018-02-24T23:24:11.512Z,48.27
2018-02-24T23:26:42.504Z,47.73
2018-02-24T23:29:13.538Z,48.12
2018-02-24T23:31:44.520Z,48.09
2018-02-24T23:34:15.582Z,48.06
2018-02-24T23:36:46.566Z,48.15
2018-02-24T23:39:17.587Z,48.18
2018-02-24T23:41:48.558Z,48.35
2018-02-24T23:44:19.567Z,48.29
2018-02-24T23:46:50.539Z,48.24
2018-02-24T23:49:21.540Z,48.17
2018-02-24T23:51:52.576Z,48.59
2018-02-24T23:54:23.550Z,48.76
2018-02-24T23:56:54.538Z,49.48
2018-02-24T23:59:25.492Z,49.49
